Time;durP1;ratioP1;P1;durP2;ratioP2;P2;SDS_P1;SDS_P2;PMS_P1;PMS_P2;Temp;Humidity;BMP_temperature;BMP_pressure;BME280_temperature;BME280_humidity;BME280_pressure;Samples;Min_cycle;Max_cycle;Signal;HPM_P1;HPM_P2
2022/04/03 00:00:53;;;;;;;;;12.50;11.50;;;;;7.02;39.99;101725.84;5012515;28;45383;-74
2022/04/03 00:03:18;;;;;;;;;14.33;12.00;;;;;6.96;40.95;101728.34;5030384;28;45436;-72
2022/04/03 00:05:44;;;;;;;;;12.33;11.67;;;;;6.91;40.73;101727.97;5022879;28;45649;-73
2022/04/03 00:08:12;;;;;;;;;12.00;12.00;;;;;6.90;41.08;101735.28;5013581;28;47215;-72
2022/04/03 00:10:39;;;;;;;;;14.00;11.33;;;;;6.86;41.10;101737.47;5030746;28;45373;-71
2022/04/03 00:13:06;;;;;;;;;13.00;13.00;;;;;6.74;40.68;101732.44;5030767;28;45402;-72
2022/04/03 00:15:32;;;;;;;;;18.00;14.00;;;;;6.74;41.04;101735.16;5012297;28;46659;-72
2022/04/03 00:17:57;;;;;;;;;13.00;12.00;;;;;6.68;41.47;101736.69;5029644;28;46217;-72
2022/04/03 00:20:23;;;;;;;;;13.25;13.25;;;;;6.67;40.68;101735.81;5031392;28;45790;-71
2022/04/03 00:22:49;;;;;;;;;16.75;15.00;;;;;6.61;41.58;101738.31;5034362;28;45502;-72
2022/04/03 00:25:16;;;;;;;;;13.00;11.75;;;;;6.61;41.60;101739.16;5034715;28;45453;-74
2022/04/03 00:27:41;;;;;;;;;11.00;11.00;;;;;6.57;41.85;101728.75;5033178;28;45359;-72
2022/04/03 00:30:08;;;;;;;;;12.67;11.33;;;;;6.53;41.85;101734.53;5033660;28;45829;-72
2022/04/03 00:32:34;;;;;;;;;14.75;14.75;;;;;6.52;42.09;101740.97;5033692;28;45683;-73
2022/04/03 00:35:01;;;;;;;;;15.25;14.25;;;;;6.47;42.00;101723.41;5033227;28;45524;-71
2022/04/03 00:37:27;;;;;;;;;11.00;11.00;;;;;6.51;42.85;101739.28;5033528;28;46112;-73
2022/04/03 00:39:52;;;;;;;;;13.25;13.25;;;;;6.52;42.09;101731.94;5033638;28;45547;-72
2022/04/03 00:42:18;;;;;;;;;14.75;13.00;;;;;6.44;42.49;101724.56;5033386;28;46131;-73
2022/04/03 00:44:44;;;;;;;;;15.00;14.00;;;;;6.41;42.38;101730.34;5032946;28;46560;-71
2022/04/03 00:47:12;;;;;;;;;11.00;11.00;;;;;6.47;42.04;101734.31;5033008;28;46030;-72
2022/04/03 00:49:38;;;;;;;;;12.75;12.50;;;;;6.35;42.25;101736.41;5032931;28;45569;-72
2022/04/03 00:52:04;;;;;;;;;15.50;12.25;;;;;6.38;43.38;101733.38;5027121;28;45630;-72
2022/04/03 00:54:30;;;;;;;;;20.00;14.25;;;;;6.29;42.72;101727.00;5033036;28;46866;-73
2022/04/03 00:56:55;;;;;;;;;13.50;13.00;;;;;6.28;42.77;101727.16;5033127;28;45706;-73
2022/04/03 00:59:22;;;;;;;;;14.50;13.50;;;;;6.23;42.96;101726.75;5033786;28;45461;-72
2022/04/03 01:01:48;;;;;;;;;13.00;11.25;;;;;6.26;43.22;101731.91;5033768;28;45728;-72
2022/04/03 01:04:13;;;;;;;;;11.75;11.25;;;;;6.24;43.28;101728.47;5033258;28;45839;-72
2022/04/03 01:06:39;;;;;;;;;18.25;13.75;;;;;6.25;43.91;101730.19;5032722;28;45709;-72
2022/04/03 01:09:05;;;;;;;;;16.25;13.75;;;;;6.21;43.34;101731.50;5024959;28;45444;-73
2022/04/03 01:11:31;;;;;;;;;17.75;14.25;;;;;6.19;43.59;101732.50;5034378;28;45833;-73
2022/04/03 01:13:57;;;;;;;;;18.00;13.75;;;;;6.17;43.84;101729.09;5033498;28;45524;-73
2022/04/03 01:16:23;;;;;;;;;12.50;12.00;;;;;6.16;44.57;101724.66;5033107;28;46856;-73
2022/04/03 01:18:49;;;;;;;;;16.25;13.75;;;;;6.15;44.56;101736.56;5033077;28;45865;-73
2022/04/03 01:21:16;;;;;;;;;15.75;14.25;;;;;6.21;44.41;101734.22;5033722;28;45801;-76
2022/04/03 01:23:43;;;;;;;;;12.50;12.50;;;;;6.23;44.14;101735.78;5033148;28;45477;-76
2022/04/03 01:26:08;;;;;;;;;17.00;13.50;;;;;6.24;44.03;101734.75;5032692;28;45738;-75
2022/04/03 01:28:33;;;;;;;;;13.50;13.50;;;;;6.21;44.54;101731.50;5032932;28;45475;-75
2022/04/03 01:30:59;;;;;;;;;12.00;11.50;;;;;6.21;44.53;101735.06;5033094;28;45960;-75
2022/04/03 01:33:24;;;;;;;;;14.00;13.00;;;;;6.25;44.75;101735.63;5032962;28;45449;-77
2022/04/03 01:35:50;;;;;;;;;14.00;12.33;;;;;6.31;44.53;101735.00;5032595;28;46143;-75
2022/04/03 01:38:16;;;;;;;;;11.75;11.50;;;;;6.28;44.39;101728.00;5032741;28;45406;-75
2022/04/03 01:40:41;;;;;;;;;14.00;13.00;;;;;6.36;44.35;101729.94;5011897;28;45378;-76
2022/04/03 01:43:09;;;;;;;;;15.75;13.00;;;;;6.38;44.65;101727.94;5033068;28;45388;-74
2022/04/03 01:45:38;;;;;;;;;13.00;11.00;;;;;6.42;44.02;101732.06;5033240;28;47171;-73
2022/04/03 01:48:05;;;;;;;;;13.25;12.00;;;;;6.38;44.37;101721.59;5032532;28;45558;-71
2022/04/03 01:50:31;;;;;;;;;13.67;12.67;;;;;6.41;44.64;101730.34;5033553;28;45795;-77
2022/04/03 01:52:56;;;;;;;;;11.33;10.33;;;;;6.38;43.97;101730.66;5032283;28;45774;-74
2022/04/03 01:55:24;;;;;;;;;11.25;9.75;;;;;6.42;44.46;101726.59;5031721;28;46212;-73
2022/04/03 01:57:49;;;;;;;;;12.50;10.50;;;;;6.41;44.81;101727.63;5014554;28;45687;-75
2022/04/03 02:00:15;;;;;;;;;15.50;14.25;;;;;6.33;44.29;101719.34;5032218;28;45615;-75
2022/04/03 02:02:41;;;;;;;;;9.33;9.33;;;;;6.34;44.39;101729.25;5031902;28;45888;-72
2022/04/03 02:05:07;;;;;;;;;15.25;12.25;;;;;6.31;44.04;101721.38;5023719;28;46040;-74
2022/04/03 02:07:33;;;;;;;;;17.50;12.25;;;;;6.31;44.75;101732.28;5032182;28;45661;-73
2022/04/03 02:10:08;;;;;;;;;13.75;12.75;;;;;6.27;44.91;101720.84;5031674;28;45621;-74
2022/04/03 02:12:35;;;;;;;;;10.33;9.00;;;;;6.27;44.25;101726.31;5031969;28;45663;-76
2022/04/03 02:15:01;;;;;;;;;12.50;11.75;;;;;6.26;44.54;101726.47;5032272;28;46248;-73
2022/04/03 02:17:26;;;;;;;;;13.75;11.75;;;;;6.22;45.51;101722.34;5032002;28;45376;-73
2022/04/03 02:19:52;;;;;;;;;12.50;12.50;;;;;6.17;44.42;101726.38;5032383;28;45624;-71
2022/04/03 02:22:17;;;;;;;;;10.50;8.25;;;;;6.18;44.93;101730.81;5029510;28;45608;-71
2022/04/03 02:24:43;;;;;;;;;13.00;12.75;;;;;6.12;44.93;101714.22;5031998;28;45789;-74
2022/04/03 02:27:08;;;;;;;;;13.75;10.25;;;;;6.17;45.02;101731.81;5031908;28;45456;-72
2022/04/03 02:29:34;;;;;;;;;10.00;9.75;;;;;6.21;45.25;101726.91;5032463;28;45736;-74
2022/04/03 02:31:59;;;;;;;;;11.25;10.00;;;;;6.25;44.93;101732.91;5032091;28;45724;-72
2022/04/03 02:34:27;;;;;;;;;12.50;11.75;;;;;6.18;45.45;101727.22;5032613;28;45797;-72
2022/04/03 02:36:53;;;;;;;;;11.50;11.50;;;;;6.18;44.96;101743.56;5032093;28;45853;-74
2022/04/03 02:39:19;;;;;;;;;10.75;10.50;;;;;6.19;45.33;101729.78;5029169;28;45496;-74
2022/04/03 02:41:44;;;;;;;;;16.00;10.25;;;;;6.19;45.26;101727.06;5033117;28;45399;-74
2022/04/03 02:44:10;;;;;;;;;11.00;10.00;;;;;6.21;45.18;101726.06;5031665;28;45765;-75
2022/04/03 02:46:35;;;;;;;;;13.00;12.00;;;;;6.18;45.31;101719.03;5032864;28;45382;-75
2022/04/03 02:49:01;;;;;;;;;13.00;11.25;;;;;6.17;45.27;101720.94;5032676;28;45462;-74
2022/04/03 02:51:26;;;;;;;;;10.75;9.50;;;;;6.17;44.81;101709.19;5031747;28;45973;-75
2022/04/03 02:53:52;;;;;;;;;14.00;11.25;;;;;6.23;44.96;101729.47;5031554;28;45834;-74
2022/04/03 02:56:17;;;;;;;;;16.25;12.75;;;;;6.28;44.68;101729.88;5013975;28;45927;-73
2022/04/03 02:58:42;;;;;;;;;11.00;11.00;;;;;6.25;45.26;101731.03;5032210;28;45902;-73
2022/04/03 03:01:08;;;;;;;;;11.75;11.25;;;;;6.25;44.56;101731.03;5032232;28;45331;-72
2022/04/03 03:03:33;;;;;;;;;15.25;15.25;;;;;6.17;45.04;101740.00;5031686;28;45684;-73
2022/04/03 03:05:59;;;;;;;;;12.00;11.00;;;;;6.08;45.66;101727.31;5015014;28;45545;-73
2022/04/03 03:08:24;;;;;;;;;12.75;12.75;;;;;6.14;45.62;101736.72;5032658;28;45499;-74
2022/04/03 03:10:50;;;;;;;;;12.00;12.00;;;;;6.13;45.46;101733.13;5031945;28;45877;-74
2022/04/03 03:13:15;;;;;;;;;12.33;10.33;;;;;6.17;45.28;101739.16;5028645;28;45651;-74
2022/04/03 03:15:41;;;;;;;;;9.50;9.25;;;;;6.16;45.20;101738.28;5033366;28;45855;-71
2022/04/03 03:18:06;;;;;;;;;12.25;11.00;;;;;6.23;45.38;101737.66;5015247;28;45411;-75
2022/04/03 03:20:32;;;;;;;;;9.25;9.25;;;;;6.27;45.10;101742.66;5031967;28;45346;-76
2022/04/03 03:22:57;;;;;;;;;11.75;11.00;;;;;6.24;45.35;101744.81;5032663;28;46218;-74
2022/04/03 03:25:23;;;;;;;;;10.67;10.67;;;;;6.24;45.76;101740.22;5032548;28;45611;-75
2022/04/03 03:27:49;;;;;;;;;13.25;13.00;;;;;6.27;45.50;101749.94;5033103;28;45932;-75
2022/04/03 03:30:14;;;;;;;;;11.50;10.75;;;;;6.27;45.51;101752.66;5034275;28;44942;-76
2022/04/03 03:32:40;;;;;;;;;12.75;11.00;;;;;6.27;45.86;101755.41;5033967;28;46930;-75
2022/04/03 03:35:06;;;;;;;;;10.50;10.50;;;;;6.17;44.90;101759.06;5036158;28;46748;-75
2022/04/03 03:37:32;;;;;;;;;11.50;9.75;;;;;6.14;45.14;101744.91;5033120;28;45834;-74
2022/04/03 03:39:57;;;;;;;;;13.00;11.50;;;;;6.19;45.58;101751.56;5008724;28;45934;-74
2022/04/03 03:42:23;;;;;;;;;11.25;10.50;;;;;6.08;45.31;101746.38;5012017;28;46259;-73
2022/04/03 03:44:49;;;;;;;;;10.00;9.75;;;;;6.10;45.30;101749.78;5031456;28;45394;-74
2022/04/03 03:47:14;;;;;;;;;18.00;12.00;;;;;6.06;45.49;101753.81;5031216;28;45488;-75
2022/04/03 03:49:40;;;;;;;;;10.25;9.50;;;;;6.01;44.91;101750.72;5031635;28;45332;-75
2022/04/03 03:52:05;;;;;;;;;11.00;9.75;;;;;5.98;45.23;101756.47;5014131;28;47118;-74
2022/04/03 03:54:31;;;;;;;;;10.67;10.33;;;;;5.87;45.49;101748.47;5033002;28;45778;-76
2022/04/03 03:56:58;;;;;;;;;12.25;11.00;;;;;5.83;45.94;101748.78;5035366;28;45475;-76
2022/04/03 03:59:24;;;;;;;;;15.50;12.00;;;;;5.84;45.74;101758.69;5033814;28;45735;-73
2022/04/03 04:01:49;;;;;;;;;12.25;11.00;;;;;5.80;45.36;101754.53;5034845;28;46078;-75
2022/04/03 04:04:15;;;;;;;;;11.50;10.50;;;;;5.66;46.10;101730.56;5035962;28;45431;-76
2022/04/03 04:06:41;;;;;;;;;11.50;11.00;;;;;5.75;45.84;101756.88;5035171;28;45475;-75
2022/04/03 04:09:07;;;;;;;;;9.00;9.00;;;;;5.69;45.75;101752.03;5035010;28;45405;-74
2022/04/03 04:11:32;;;;;;;;;10.50;10.25;;;;;5.52;46.65;101748.25;5026432;28;45746;-75
2022/04/03 04:13:58;;;;;;;;;9.75;9.75;;;;;5.58;46.09;101755.81;5034850;28;45787;-73
2022/04/03 04:16:23;;;;;;;;;8.00;8.00;;;;;5.52;46.44;101771.88;5034955;28;45374;-74
2022/04/03 04:18:52;;;;;;;;;15.75;11.00;;;;;5.50;46.74;101771.19;5034737;28;45492;-73
2022/04/03 04:21:17;;;;;;;;;8.75;8.00;;;;;5.40;47.55;101766.63;5034501;28;45407;-73
2022/04/03 04:23:43;;;;;;;;;12.50;9.25;;;;;5.37;46.98;101779.69;5033766;28;45591;-76
2022/04/03 04:26:09;;;;;;;;;8.25;8.25;;;;;5.30;46.62;101784.88;5034153;28;45804;-74
2022/04/03 04:28:35;;;;;;;;;8.75;8.25;;;;;5.24;46.77;101782.72;5027040;28;45429;-73
2022/04/03 04:31:00;;;;;;;;;13.00;11.00;;;;;5.14;47.74;101788.22;5030959;28;45397;-75
2022/04/03 04:33:26;;;;;;;;;15.75;12.25;;;;;5.12;47.24;101791.06;5029503;28;45311;-74
2022/04/03 04:35:52;;;;;;;;;11.00;10.00;;;;;4.97;48.15;101773.53;5035101;28;45844;-73
2022/04/03 04:38:17;;;;;;;;;9.25;8.75;;;;;4.99;48.46;101787.81;5012877;28;45781;-72
2022/04/03 04:40:43;;;;;;;;;9.75;9.25;;;;;4.95;47.73;101786.38;5018278;28;46890;-72
2022/04/03 04:43:09;;;;;;;;;11.25;10.00;;;;;4.90;47.43;101783.25;5032907;28;45432;-72
2022/04/03 04:45:35;;;;;;;;;10.00;10.00;;;;;4.86;48.15;101793.53;5032387;28;45595;-72
2022/04/03 04:48:00;;;;;;;;;10.00;10.00;;;;;4.83;47.71;101793.84;5032076;28;45799;-72
2022/04/03 04:50:31;;;;;;;;;14.00;11.50;;;;;4.80;48.20;101801.44;5032643;28;45796;-73
2022/04/03 04:52:58;;;;;;;;;11.00;10.00;;;;;4.75;48.28;101797.28;5032187;28;45453;-72
2022/04/03 04:55:24;;;;;;;;;14.50;12.00;;;;;4.68;48.64;101801.56;5013500;28;45748;-72
2022/04/03 04:57:55;;;;;;;;;15.25;10.00;;;;;4.63;48.99;101808.47;5031416;28;45748;-73
2022/04/03 05:00:22;;;;;;;;;9.75;9.50;;;;;4.62;48.61;101813.03;5031401;28;45704;-71
2022/04/03 05:02:49;;;;;;;;;8.50;8.50;;;;;4.64;49.19;101816.47;5029738;28;45538;-70
2022/04/03 05:05:17;;;;;;;;;13.00;9.00;;;;;4.58;48.45;101817.91;5032866;28;45983;-71
2022/04/03 05:07:44;;;;;;;;;14.00;11.50;;;;;4.51;48.58;101821.34;5030182;28;45907;-71
2022/04/03 05:10:12;;;;;;;;;9.75;8.75;;;;;4.42;48.38;101818.44;5029896;28;46656;-74
2022/04/03 05:12:39;;;;;;;;;14.00;10.00;;;;;4.38;48.82;101822.44;5026990;28;45819;-76
2022/04/03 05:15:14;;;;;;;;;11.50;10.50;;;;;4.36;47.91;101819.03;5037766;28;45894;-72
2022/04/03 05:17:43;;;;;;;;;11.25;11.25;;;;;4.31;47.73;101813.19;5015431;28;45465;-73
2022/04/03 05:20:11;;;;;;;;;13.00;11.50;;;;;4.26;48.24;101811.88;5035313;28;45976;-73
2022/04/03 05:22:40;;;;;;;;;9.75;8.75;;;;;4.24;47.79;101818.28;5036409;28;45485;-72
2022/04/03 05:25:11;;;;;;;;;11.00;9.75;;;;;4.28;49.02;101821.59;5028561;28;45430;-73
2022/04/03 05:27:44;;;;;;;;;10.50;10.50;;;;;4.28;48.84;101812.59;5034069;28;46259;-74
2022/04/03 05:30:10;;;;;;;;;10.00;10.00;;;;;4.35;48.64;101817.31;5039281;28;46120;-71
2022/04/03 05:32:39;;;;;;;;;16.25;10.75;;;;;4.38;49.28;101817.00;5022378;28;45495;-72
2022/04/03 05:35:06;;;;;;;;;10.00;9.75;;;;;4.43;47.65;101808.44;5015393;28;45879;-73
2022/04/03 05:37:32;;;;;;;;;14.25;11.50;;;;;4.70;47.87;101820.44;5026723;28;45854;-71
2022/04/03 05:39:57;;;;;;;;;15.50;11.00;;;;;4.89;47.29;101815.00;5028656;28;45957;-73
2022/04/03 05:42:23;;;;;;;;;14.50;10.25;;;;;5.07;46.62;101814.25;5034902;28;45494;-73
2022/04/03 05:44:51;;;;;;;;;15.50;10.25;;;;;5.40;45.45;101826.47;5035462;28;45878;-71
2022/04/03 05:47:17;;;;;;;;;9.25;9.00;;;;;5.70;44.61;101827.22;5035598;28;46256;-73
2022/04/03 05:49:46;;;;;;;;;11.25;10.25;;;;;6.03;44.25;101832.25;5031748;28;46085;-72
2022/04/03 05:52:12;;;;;;;;;9.50;9.00;;;;;6.16;43.27;101803.63;5030418;28;45699;-74
2022/04/03 05:54:37;;;;;;;;;13.50;10.25;;;;;6.70;43.29;101821.88;5021446;28;45430;-74
2022/04/03 05:57:06;;;;;;;;;10.00;10.00;;;;;7.09;42.21;101821.50;5040093;28;46161;-73
2022/04/03 05:59:32;;;;;;;;;13.25;10.25;;;;;7.51;40.99;101823.47;5032831;28;46228;-72
2022/04/03 06:01:57;;;;;;;;;9.75;9.75;;;;;7.93;39.56;101819.94;5033604;28;45758;-74
2022/04/03 06:04:26;;;;;;;;;7.75;7.75;;;;;8.32;39.64;101834.88;5034007;28;45479;-74
2022/04/03 06:06:52;;;;;;;;;11.00;9.00;;;;;8.78;38.62;101834.50;5032857;28;45818;-73
2022/04/03 06:09:17;;;;;;;;;9.00;9.00;;;;;9.40;37.52;101847.63;5031122;28;45949;-74
2022/04/03 06:11:43;;;;;;;;;13.67;11.00;;;;;9.93;37.00;101841.66;5030798;28;45882;-71
2022/04/03 06:14:10;;;;;;;;;13.67;13.67;;;;;10.42;35.57;101839.53;5026601;28;45986;-71
2022/04/03 06:16:35;;;;;;;;;14.33;12.67;;;;;10.86;34.49;101835.25;5035487;28;45955;-73
2022/04/03 06:19:01;;;;;;;;;10.00;9.33;;;;;11.30;33.71;101847.41;5031760;28;45893;-72
2022/04/03 06:21:26;;;;;;;;;11.00;9.00;;;;;11.68;33.82;101843.72;5021311;28;45814;-73
2022/04/03 06:23:51;;;;;;;;;13.00;9.67;;;;;12.04;32.46;101838.38;5030444;28;45502;-73
2022/04/03 06:26:17;;;;;;;;;13.33;12.33;;;;;12.51;31.58;101859.03;5031263;28;45974;-74
2022/04/03 06:28:42;;;;;;;;;11.00;9.00;;;;;12.86;31.33;101850.94;5023752;28;46984;-76
2022/04/03 06:31:08;;;;;;;;;11.67;11.00;;;;;13.37;30.79;101849.06;5031025;28;45921;-73
2022/04/03 06:33:34;;;;;;;;;12.00;11.00;;;;;13.78;30.31;101845.50;4997457;28;45984;-73
2022/04/03 06:36:00;;;;;;;;;12.00;10.67;;;;;14.41;29.07;101850.88;5029412;28;45749;-74
2022/04/03 06:38:26;;;;;;;;;12.67;12.67;;;;;14.84;28.81;101855.28;5012695;28;46826;-75
2022/04/03 06:40:54;;;;;;;;;14.00;13.00;;;;;15.18;27.49;101857.00;5030348;28;45710;-75
2022/04/03 06:43:21;;;;;;;;;14.67;12.67;;;;;15.62;26.95;101862.91;5031029;28;45960;-72
2022/04/03 06:45:47;;;;;;;;;9.67;8.67;;;;;16.08;26.42;101854.72;5030948;28;45547;-74
2022/04/03 06:48:13;;;;;;;;;13.00;8.00;;;;;16.36;25.78;101849.75;5029459;28;45818;-74
2022/04/03 06:50:39;;;;;;;;;11.00;10.67;;;;;16.84;25.01;101861.38;5031744;28;45754;-74
2022/04/03 06:53:05;;;;;;;;;13.33;10.00;;;;;17.47;25.13;101864.09;5030948;28;45354;-75
2022/04/03 06:55:31;;;;;;;;;11.33;10.00;;;;;17.74;23.42;101851.88;5030468;28;45863;-73
2022/04/03 06:57:56;;;;;;;;;11.00;8.33;;;;;18.10;23.18;101869.66;5030768;28;45624;-74
2022/04/03 07:00:22;;;;;;;;;15.00;13.67;;;;;18.24;22.64;101873.13;5029926;28;45819;-74
2022/04/03 07:02:49;;;;;;;;;8.33;6.33;;;;;18.24;22.47;101876.75;5029768;28;45756;-74
2022/04/03 07:05:15;;;;;;;;;9.00;8.33;;;;;18.29;22.68;101867.72;5026577;28;45426;-71
2022/04/03 07:07:41;;;;;;;;;10.00;7.33;;;;;18.49;22.52;101875.81;5012068;28;46845;-73
2022/04/03 07:10:08;;;;;;;;;9.00;9.00;;;;;18.44;22.03;101879.28;5029532;28;45478;-73
2022/04/03 07:12:34;;;;;;;;;7.00;7.00;;;;;18.61;21.78;101873.09;5029778;28;45634;-74
2022/04/03 07:14:59;;;;;;;;;11.33;7.33;;;;;18.90;22.26;101881.69;5028292;28;45524;-74
2022/04/03 07:17:24;;;;;;;;;8.00;7.00;;;;;19.04;21.79;101877.59;5029311;28;45834;-73
2022/04/03 07:19:57;;;;;;;;;8.33;6.67;;;;;18.99;21.25;101878.31;5026758;28;45833;-74
2022/04/03 07:22:22;;;;;;;;;8.00;5.00;;;;;19.03;21.06;101889.81;5028907;28;47162;-73
2022/04/03 07:24:48;;;;;;;;;8.00;8.00;;;;;19.17;21.25;101885.72;5029456;28;45395;-73
2022/04/03 07:27:13;;;;;;;;;6.33;6.33;;;;;19.34;20.69;101887.81;5026078;28;46552;-73
2022/04/03 07:29:39;;;;;;;;;6.67;6.67;;;;;19.73;21.02;101886.28;5030180;28;45332;-74
2022/04/03 07:32:05;;;;;;;;;6.33;4.33;;;;;19.91;20.40;101888.09;5032568;28;46466;-74
2022/04/03 07:34:31;;;;;;;;;7.33;7.33;;;;;20.24;20.14;101892.16;5012287;28;47023;-72
2022/04/03 07:36:56;;;;;;;;;7.00;7.00;;;;;20.32;20.13;101890.94;5029268;28;46556;-72
2022/04/03 07:39:23;;;;;;;;;7.00;7.00;;;;;20.20;19.61;101885.38;5027285;28;45549;-75
2022/04/03 07:41:49;;;;;;;;;7.33;7.33;;;;;19.04;19.92;101886.78;5027792;28;45989;-74
2022/04/03 07:44:14;;;;;;;;;6.33;6.33;;;;;17.63;21.39;101886.78;5026863;28;45419;-75
2022/04/03 07:46:39;;;;;;;;;8.00;5.67;;;;;16.52;22.62;101900.97;5026640;28;45488;-75
2022/04/03 07:49:05;;;;;;;;;7.33;7.33;;;;;15.32;23.41;101891.00;5029044;28;45619;-73
2022/04/03 07:51:32;;;;;;;;;7.33;6.00;;;;;14.29;24.13;101905.81;5020744;28;45545;-74
2022/04/03 07:53:57;;;;;;;;;7.33;5.67;;;;;13.30;25.13;101908.75;5002547;28;47300;-75
2022/04/03 07:56:23;;;;;;;;;6.33;6.33;;;;;12.46;26.85;101900.03;5029523;28;45616;-75
2022/04/03 07:58:49;;;;;;;;;9.50;7.00;;;;;11.89;27.61;101917.22;5029184;28;45849;-76
2022/04/03 08:01:14;;;;;;;;;7.67;6.00;;;;;11.24;28.74;101912.19;5029858;28;45520;-76
2022/04/03 08:03:40;;;;;;;;;7.00;6.00;;;;;10.76;28.80;101916.97;5030040;28;45738;-76
2022/04/03 08:06:06;;;;;;;;;8.67;6.00;;;;;10.41;30.56;101917.34;5024520;28;45673;-75
2022/04/03 08:08:31;;;;;;;;;6.33;6.33;;;;;10.20;30.47;101933.53;5029736;28;45591;-75
2022/04/03 08:10:57;;;;;;;;;8.00;6.33;;;;;10.03;30.52;101921.75;5030738;28;45282;-72
2022/04/03 08:13:22;;;;;;;;;8.33;6.00;;;;;9.95;30.90;101930.00;5029690;28;45548;-76
2022/04/03 08:15:48;;;;;;;;;12.00;11.00;;;;;9.65;31.18;101916.88;5030261;28;45802;-78
2022/04/03 08:18:14;;;;;;;;;7.33;5.33;;;;;9.45;31.33;101910.06;5030754;28;45471;-76
2022/04/03 08:20:40;;;;;;;;;6.33;5.33;;;;;9.35;31.00;101935.72;5006815;28;45447;-81
2022/04/03 08:23:05;;;;;;;;;9.00;6.33;;;;;9.18;31.74;101929.41;5030513;28;46055;-77
2022/04/03 08:25:32;;;;;;;;;8.33;7.67;;;;;9.06;32.35;101930.78;5004061;28;47011;-79
2022/04/03 08:28:00;;;;;;;;;6.33;4.00;;;;;8.97;32.59;101945.47;5028864;28;45422;-78
2022/04/03 08:30:31;;;;;;;;;7.33;6.00;;;;;8.88;32.18;101944.59;5030537;28;45359;-78
2022/04/03 08:32:58;;;;;;;;;5.00;4.33;;;;;8.71;32.34;101954.63;5027297;28;46282;-82
2022/04/03 08:35:26;;;;;;;;;7.00;5.00;;;;;8.51;32.74;101956.81;5029139;28;45432;-74
2022/04/03 08:37:52;;;;;;;;;5.67;5.67;;;;;8.33;32.67;101945.94;5024274;28;47015;-75
2022/04/03 08:40:21;;;;;;;;;6.00;6.00;;;;;8.26;33.46;101956.69;5025321;28;45941;-75
2022/04/03 08:42:46;;;;;;;;;6.00;3.33;;;;;8.20;33.11;101940.91;5011621;28;46171;-74
2022/04/03 08:45:12;;;;;;;;;5.00;4.00;;;;;8.12;32.36;101951.81;5030056;28;45542;-74
2022/04/03 08:47:44;;;;;;;;;5.00;5.00;;;;;8.06;32.19;101958.78;5032552;28;45639;-76
2022/04/03 08:50:10;;;;;;;;;4.00;4.00;;;;;8.00;32.41;101953.13;5031750;28;46005;-74
2022/04/03 08:52:37;;;;;;;;;7.00;6.00;;;;;7.94;33.26;101946.44;5031815;28;45789;-75
2022/04/03 08:55:04;;;;;;;;;5.00;5.00;;;;;7.83;32.52;101920.25;5031018;28;45500;-75
2022/04/03 08:57:33;;;;;;;;;7.67;5.00;;;;;8.02;33.30;101949.19;5032666;28;45682;-77
2022/04/03 08:59:59;;;;;;;;;3.00;3.00;;;;;8.29;31.14;101956.34;5033631;28;45607;-75
2022/04/03 09:02:25;;;;;;;;;3.67;2.67;;;;;9.72;30.02;101944.44;5033343;28;45420;-74
2022/04/03 09:04:51;;;;;;;;;1.67;1.67;;;;;11.52;27.97;101930.78;5030859;28;45660;-75
2022/04/03 09:07:21;;;;;;;;;6.00;3.00;;;;;12.96;25.28;101951.63;5033563;28;45433;-75
2022/04/03 09:10:05;;;;;;;;;4.00;4.00;;;;;14.25;23.55;101940.41;5025443;28;45539;-74
2022/04/03 09:12:31;;;;;;;;;3.33;3.33;;;;;15.32;22.52;101946.28;5032026;28;45444;-74
2022/04/03 09:14:57;;;;;;;;;3.67;3.67;;;;;16.25;21.35;101947.31;5033689;28;46171;-74
2022/04/03 09:17:33;;;;;;;;;6.33;4.67;;;;;16.91;20.84;101939.81;5032637;28;45884;-75
2022/04/03 09:20:09;;;;;;;;;6.33;4.00;;;;;17.80;19.83;101940.63;5032100;28;45770;-75
2022/04/03 09:22:37;;;;;;;;;8.00;8.00;;;;;18.60;19.61;101929.72;5031436;28;45738;-75
2022/04/03 09:25:09;;;;;;;;;5.00;4.00;;;;;19.46;18.09;101935.97;5031837;28;45782;-73
2022/04/03 09:27:45;;;;;;;;;2.33;2.00;;;;;20.28;18.19;101937.06;5032523;28;45921;-71
2022/04/03 09:30:11;;;;;;;;;3.33;3.33;;;;;20.77;16.72;101933.94;5033836;28;45801;-73
2022/04/03 09:32:55;;;;;;;;;4.67;2.00;;;;;21.32;16.65;101932.47;5029095;28;45802;-73
2022/04/03 09:35:26;;;;;;;;;4.67;3.67;;;;;21.75;15.68;101939.34;5028605;28;46484;-73
2022/04/03 09:38:14;;;;;;;;;2.00;2.00;;;;;21.96;15.55;101934.06;5030408;28;45867;-73
2022/04/03 09:40:47;;;;;;;;;5.33;4.33;;;;;22.07;14.59;101938.72;5030375;28;45641;-73
2022/04/03 09:43:25;;;;;;;;;2.33;2.33;;;;;22.08;14.74;101936.75;5013935;28;45743;-73
2022/04/03 09:45:53;;;;;;;;;2.33;2.33;;;;;22.07;14.83;101926.69;5029800;28;46094;-74
2022/04/03 09:48:41;;;;;;;;;2.33;2.33;;;;;22.56;14.77;101927.66;5022408;28;46059;-73
2022/04/03 09:51:11;;;;;;;;;1.33;1.33;;;;;23.01;14.33;101935.97;5023662;28;45953;-72
2022/04/03 09:53:47;;;;;;;;;1.00;1.00;;;;;22.94;14.22;101936.19;5017953;28;45575;-73
2022/04/03 09:56:27;;;;;;;;;2.00;2.00;;;;;22.48;14.17;101952.41;5011886;28;47410;-71
2022/04/03 09:58:53;;;;;;;;;1.00;1.00;;;;;21.99;14.52;101933.53;5030870;28;45740;-73
2022/04/03 10:01:30;;;;;;;;;1.00;1.00;;;;;21.38;14.66;101941.75;5013270;28;45446;-73
2022/04/03 10:04:01;;;;;;;;;0.00;0.00;;;;;21.11;14.87;101929.31;5028731;28;45536;-74
2022/04/03 10:06:28;;;;;;;;;2.00;2.00;;;;;20.92;14.73;101938.97;5025680;28;45551;-73
2022/04/03 10:08:54;;;;;;;;;1.00;1.00;;;;;20.73;15.45;101924.38;5022112;28;45729;-78
2022/04/03 10:11:20;;;;;;;;;1.67;1.67;;;;;20.98;14.97;101924.88;5029829;28;45571;-72
2022/04/03 10:13:47;;;;;;;;;2.00;2.00;;;;;21.19;14.65;101913.25;5028389;28;45926;-71
2022/04/03 10:16:14;;;;;;;;;2.00;2.00;;;;;21.46;14.88;101919.03;5025725;28;46600;-72
2022/04/03 10:18:41;;;;;;;;;1.00;1.00;;;;;21.63;14.90;101907.88;5029478;28;45870;-77
2022/04/03 10:21:15;;;;;;;;;2.00;2.00;;;;;21.82;14.70;101928.84;5030423;28;45555;-77
2022/04/03 10:23:43;;;;;;;;;2.33;1.00;;;;;21.71;14.46;101928.94;5031450;28;45533;-79
2022/04/03 10:26:11;;;;;;;;;1.67;1.00;;;;;21.39;14.71;101929.50;4998700;28;47443;-83
2022/04/03 10:28:40;;;;;;;;;0.00;0.00;;;;;20.58;14.78;101913.75;5027100;28;45874;-82
2022/04/03 10:31:08;;;;;;;;;1.00;1.00;;;;;20.47;15.26;101918.25;5032587;28;45469;-78
2022/04/03 10:33:39;;;;;;;;;1.33;1.00;;;;;20.31;15.20;101908.72;5032658;28;45482;-76
2022/04/03 10:36:10;;;;;;;;;2.00;1.00;;;;;20.04;15.76;101920.41;5026198;28;46114;-80
2022/04/03 10:38:55;;;;;;;;;0.00;0.00;;;;;19.68;15.94;101915.91;5032043;28;45869;-78
2022/04/03 10:41:29;;;;;;;;;2.00;2.00;;;;;19.55;15.87;101897.50;5031548;28;45922;-81
2022/04/03 10:44:22;;;;;;;;;1.33;0.33;;;;;19.82;16.14;101910.97;5007626;28;46439;-80
2022/04/03 10:47:06;;;;;;;;;2.00;1.00;;;;;19.68;15.81;101913.13;5031567;28;45370;-77
2022/04/03 10:49:59;;;;;;;;;1.00;1.00;;;;;18.68;16.86;101921.06;5024774;28;45505;-78
2022/04/03 10:52:27;;;;;;;;;2.33;2.33;;;;;18.64;16.35;101905.97;5026072;28;45602;-77
2022/04/03 10:54:54;;;;;;;;;3.67;2.33;;;;;18.75;16.84;101912.66;5025874;28;45324;-77
2022/04/03 10:57:43;;;;;;;;;2.00;2.00;;;;;18.81;17.22;101900.59;5027027;28;46546;-73
2022/04/03 11:00:14;;;;;;;;;3.00;2.00;;;;;18.84;16.72;101889.81;5028660;28;45759;-72
2022/04/03 11:02:43;;;;;;;;;1.00;0.00;;;;;18.40;17.15;101900.28;5027348;28;46022;-72
2022/04/03 11:05:26;;;;;;;;;2.67;2.67;;;;;17.74;17.34;101910.16;5031103;28;45540;-73
2022/04/03 11:08:00;;;;;;;;;3.33;2.00;;;;;17.24;18.56;101899.94;5029142;28;45645;-72
2022/04/03 11:10:54;;;;;;;;;2.67;2.67;;;;;17.18;17.97;101886.97;5028255;28;44921;-73
2022/04/03 11:13:23;;;;;;;;;2.00;2.00;;;;;17.03;19.31;101879.81;5024125;28;45360;-72
2022/04/03 11:15:50;;;;;;;;;7.00;1.67;;;;;16.90;18.81;101893.75;5009425;28;47204;-71
2022/04/03 11:18:47;;;;;;;;;3.33;3.33;;;;;16.19;19.10;101881.75;5028961;28;46419;-72
2022/04/03 11:21:25;;;;;;;;;4.00;3.00;;;;;15.64;19.26;101879.28;5023355;28;46144;-73
2022/04/03 11:23:50;;;;;;;;;2.67;2.67;;;;;15.21;19.67;101877.84;5028193;28;45788;-72